createdAt,value
2022-10-03T00:00:21.229Z,7.50
2022-10-03T00:03:13.746Z,7.83
2022-10-03T00:05:56.323Z,7.43
2022-10-03T00:08:36.095Z,7.23
2022-10-03T00:11:32.851Z,7.03
2022-10-03T00:14:18.647Z,7.80
2022-10-03T00:17:03.199Z,7.53
2022-10-03T00:19:59.152Z,8.13
2022-10-03T00:22:31.714Z,8.43
2022-10-03T00:25:21.004Z,8.30
2022-10-03T00:28:02.918Z,8.70
2022-10-03T00:30:42.756Z,8.27
2022-10-03T00:33:27.610Z,8.17
2022-10-03T00:36:07.932Z,8.07
2022-10-03T00:38:43.775Z,8.47
2022-10-03T00:41:40.727Z,8.57
2022-10-03T00:44:26.454Z,8.80
2022-10-03T00:47:17.833Z,9.00
2022-10-03T00:50:23.294Z,8.30
2022-10-03T00:53:09.581Z,8.50
2022-10-03T00:55:55.995Z,8.17
2022-10-03T00:58:31.818Z,7.63
2022-10-03T01:01:31.585Z,8.17
2022-10-03T01:04:34.152Z,8.83
2022-10-03T01:07:21.721Z,8.70
2022-10-03T01:10:28.143Z,8.30
2022-10-03T01:13:18.594Z,9.23
2022-10-03T01:16:04.165Z,7.97
2022-10-03T01:19:00.016Z,8.17
2022-10-03T01:21:34.670Z,8.00
2022-10-03T01:24:51.118Z,8.60
2022-10-03T01:28:02.968Z,8.80
2022-10-03T01:30:52.797Z,8.57
2022-10-03T01:33:33.362Z,8.03
2022-10-03T01:36:12.872Z,10.20
2022-10-03T01:38:58.482Z,9.30
2022-10-03T01:42:00.273Z,9.10
2022-10-03T01:44:54.734Z,8.40
2022-10-03T01:47:51.459Z,8.80
2022-10-03T01:50:30.285Z,8.70
2022-10-03T01:53:19.674Z,9.30
2022-10-03T01:56:04.944Z,8.40
2022-10-03T01:59:00.021Z,9.93
2022-10-03T02:01:38.941Z,11.20
2022-10-03T02:04:11.501Z,9.77
2022-10-03T02:06:58.507Z,10.27
2022-10-03T02:09:45.488Z,10.40
2022-10-03T02:12:30.259Z,10.27
2022-10-03T02:15:05.805Z,9.67
2022-10-03T02:17:58.014Z,10.23
2022-10-03T02:20:48.599Z,10.40
2022-10-03T02:23:24.085Z,10.50
2022-10-03T02:26:09.469Z,10.13
2022-10-03T02:28:59.052Z,10.13
2022-10-03T02:31:56.975Z,10.77
2022-10-03T02:34:43.978Z,11.53
2022-10-03T02:37:48.427Z,11.30
2022-10-03T02:40:50.993Z,11.73
2022-10-03T02:44:09.329Z,11.80
2022-10-03T02:46:38.793Z,10.40
2022-10-03T02:49:23.921Z,10.40
2022-10-03T02:52:23.491Z,10.53
2022-10-03T02:55:12.071Z,10.90
2022-10-03T02:58:11.438Z,10.37
2022-10-03T03:01:14.252Z,10.50
2022-10-03T03:04:11.938Z,10.17
2022-10-03T03:06:54.450Z,12.03
2022-10-03T03:09:49.089Z,10.57
2022-10-03T03:12:24.708Z,10.53
2022-10-03T03:15:33.332Z,10.83
2022-10-03T03:18:18.893Z,10.20
2022-10-03T03:21:10.468Z,12.30
2022-10-03T03:24:09.071Z,10.50
2022-10-03T03:27:03.046Z,10.23
2022-10-03T03:29:55.742Z,10.73
2022-10-03T03:32:27.189Z,10.73
2022-10-03T03:35:19.172Z,11.30
2022-10-03T03:38:12.935Z,12.23
2022-10-03T03:41:06.954Z,11.13
2022-10-03T03:43:51.802Z,11.47
2022-10-03T03:46:30.560Z,10.77
2022-10-03T03:49:19.128Z,11.13
2022-10-03T03:51:56.787Z,11.47
2022-10-03T03:54:30.061Z,11.23
2022-10-03T03:57:39.010Z,11.07
2022-10-03T04:00:22.083Z,12.40
2022-10-03T04:03:01.817Z,12.33
2022-10-03T04:06:01.624Z,12.07
2022-10-03T04:08:59.177Z,12.37
2022-10-03T04:11:54.559Z,11.83
2022-10-03T04:14:37.829Z,12.63
2022-10-03T04:17:42.306Z,11.37
2022-10-03T04:20:17.310Z,11.37
2022-10-03T04:23:00.472Z,11.70
2022-10-03T04:25:42.506Z,11.10
2022-10-03T04:28:49.043Z,11.17
2022-10-03T04:31:39.513Z,11.23
2022-10-03T04:34:21.960Z,12.30
2022-10-03T04:37:14.772Z,11.67
2022-10-03T04:40:21.169Z,11.70
2022-10-03T04:43:10.357Z,12.27
2022-10-03T04:45:57.189Z,11.83
2022-10-03T04:48:29.101Z,11.77
2022-10-03T04:50:58.715Z,11.87
2022-10-03T04:54:02.953Z,12.93
2022-10-03T04:56:57.609Z,11.63
2022-10-03T04:59:48.713Z,11.73
2022-10-03T05:02:52.484Z,11.20
2022-10-03T05:05:52.787Z,12.63
2022-10-03T05:08:47.450Z,12.40
2022-10-03T05:11:43.535Z,13.63
2022-10-03T05:14:24.432Z,12.23
2022-10-03T05:17:32.737Z,11.87
2022-10-03T05:20:24.328Z,11.47
2022-10-03T05:23:02.410Z,11.93
2022-10-03T05:25:47.213Z,12.80
2022-10-03T05:28:16.890Z,11.90
2022-10-03T05:31:04.398Z,12.67
2022-10-03T05:33:31.583Z,11.80
2022-10-03T05:36:22.869Z,13.03
2022-10-03T05:39:27.603Z,13.13
2022-10-03T05:42:23.931Z,11.23
2022-10-03T05:45:10.606Z,12.20
2022-10-03T05:47:52.865Z,12.10
2022-10-03T05:50:44.513Z,11.60
2022-10-03T05:53:39.270Z,12.23
2022-10-03T05:56:25.711Z,12.47
2022-10-03T05:59:35.458Z,11.30
2022-10-03T06:02:41.035Z,11.23
2022-10-03T06:05:46.404Z,11.20
2022-10-03T06:08:36.999Z,11.97
2022-10-03T06:11:22.245Z,10.97
2022-10-03T06:14:27.216Z,11.40
2022-10-03T06:17:04.775Z,10.50
2022-10-03T06:19:49.814Z,10.83
2022-10-03T06:22:38.289Z,10.63
2022-10-03T06:25:29.933Z,11.73
2022-10-03T06:28:44.939Z,10.23
2022-10-03T06:31:50.511Z,12.00
2022-10-03T06:34:17.546Z,11.10
2022-10-03T06:37:18.557Z,11.00
2022-10-03T06:40:15.760Z,11.93
2022-10-03T06:43:34.901Z,11.93
2022-10-03T06:46:23.377Z,11.40
2022-10-03T06:49:02.335Z,11.67
2022-10-03T06:52:00.070Z,11.53
2022-10-03T06:54:45.330Z,12.03
2022-10-03T06:57:37.903Z,12.57
2022-10-03T07:00:43.230Z,10.83
2022-10-03T07:03:38.114Z,12.10
2022-10-03T07:06:11.671Z,12.63
2022-10-03T07:08:58.250Z,11.87
2022-10-03T07:11:46.866Z,11.60
2022-10-03T07:14:41.342Z,11.73
2022-10-03T07:17:42.190Z,11.20
2022-10-03T07:20:33.082Z,10.67
2022-10-03T07:23:31.038Z,12.37
2022-10-03T07:26:10.812Z,11.37
2022-10-03T07:29:06.273Z,11.47
2022-10-03T07:31:51.401Z,10.87
2022-10-03T07:34:27.078Z,10.13
2022-10-03T07:37:24.646Z,10.40
2022-10-03T07:40:09.213Z,9.93
2022-10-03T07:43:01.760Z,9.63
2022-10-03T07:45:34.704Z,9.70
2022-10-03T07:48:29.529Z,9.53
2022-10-03T07:51:45.216Z,8.93
2022-10-03T07:54:36.348Z,9.23
2022-10-03T07:57:48.581Z,8.93
2022-10-03T08:00:24.446Z,8.77
2022-10-03T08:03:14.453Z,10.27
2022-10-03T08:05:59.293Z,8.43
2022-10-03T08:09:11.793Z,9.00
2022-10-03T08:12:08.701Z,8.33
2022-10-03T08:14:49.676Z,8.20
2022-10-03T08:17:50.515Z,8.47
2022-10-03T08:20:35.306Z,8.20
2022-10-03T08:23:43.418Z,7.40
2022-10-03T08:26:13.420Z,7.07
2022-10-03T08:28:50.623Z,7.07
2022-10-03T08:31:55.023Z,6.60
2022-10-03T08:34:59.862Z,6.60
2022-10-03T08:37:45.390Z,6.90
2022-10-03T08:40:40.195Z,6.40
2022-10-03T08:43:44.509Z,6.23
2022-10-03T08:46:48.871Z,6.83
2022-10-03T08:49:24.452Z,8.27
2022-10-03T08:51:51.200Z,6.63
2022-10-03T08:54:39.747Z,7.90
2022-10-03T08:57:09.578Z,11.77
2022-10-03T09:00:00.960Z,9.03
2022-10-03T09:03:31.959Z,8.03
2022-10-03T09:05:55.285Z,5.80
2022-10-03T09:08:50.747Z,5.50
2022-10-03T09:11:20.304Z,5.40
2022-10-03T09:14:11.012Z,5.23
2022-10-03T09:16:44.545Z,5.30
2022-10-03T09:19:36.073Z,5.47
2022-10-03T09:22:14.113Z,5.33
2022-10-03T09:25:06.880Z,6.13
2022-10-03T09:27:39.666Z,5.73
2022-10-03T09:30:12.601Z,5.87
2022-10-03T09:33:08.992Z,5.00
2022-10-03T09:35:51.089Z,5.80
2022-10-03T09:38:55.832Z,5.40
2022-10-03T09:41:41.341Z,4.83
2022-10-03T09:44:40.630Z,4.50
2022-10-03T09:47:31.558Z,4.73
2022-10-03T09:50:29.561Z,4.10
2022-10-03T09:53:28.035Z,4.37
2022-10-03T09:56:03.983Z,4.10
2022-10-03T09:58:40.459Z,4.30
2022-10-03T10:01:23.613Z,4.50
2022-10-03T10:04:12.046Z,4.10
2022-10-03T10:06:53.857Z,3.63
2022-10-03T10:09:41.834Z,4.60
2022-10-03T10:12:46.970Z,4.60
2022-10-03T10:15:51.313Z,4.90
2022-10-03T10:18:55.064Z,4.33
2022-10-03T10:21:43.693Z,4.67
2022-10-03T10:24:13.169Z,4.03
2022-10-03T10:26:51.850Z,4.37
2022-10-03T10:29:46.063Z,4.10
2022-10-03T10:32:50.263Z,4.30
2022-10-03T10:35:51.857Z,3.70
2022-10-03T10:38:43.609Z,4.33
2022-10-03T10:41:29.221Z,3.87
2022-10-03T10:44:17.987Z,3.50
2022-10-03T10:47:11.393Z,4.07
2022-10-03T10:49:57.353Z,3.23
2022-10-03T10:52:49.230Z,4.47
2022-10-03T10:55:37.750Z,3.70
2022-10-03T10:58:23.302Z,3.60
2022-10-03T11:01:28.761Z,3.90
2022-10-03T11:04:32.558Z,3.57
2022-10-03T11:07:27.015Z,3.50
2022-10-03T11:10:12.648Z,3.93
2022-10-03T11:12:59.005Z,3.57
2022-10-03T11:15:47.284Z,3.40
2022-10-03T11:18:43.387Z,3.70
2022-10-03T11:21:34.877Z,3.53
2022-10-03T11:24:20.553Z,3.57
2022-10-03T11:27:19.360Z,3.63
2022-10-03T11:30:14.194Z,3.53
2022-10-03T11:33:01.733Z,3.40
2022-10-03T11:36:06.280Z,3.20
2022-10-03T11:38:36.322Z,3.53
2022-10-03T11:41:20.460Z,3.80
2022-10-03T11:44:17.805Z,2.80
2022-10-03T11:46:59.641Z,3.20
2022-10-03T11:49:34.471Z,3.50
2022-10-03T11:52:41.703Z,3.43
2022-10-03T11:55:23.575Z,3.67
2022-10-03T11:58:01.276Z,3.10
2022-10-03T12:00:33.239Z,3.40
2022-10-03T12:03:26.865Z,3.40
2022-10-03T12:06:19.148Z,3.33
2022-10-03T12:09:06.481Z,4.73
2022-10-03T12:11:38.626Z,4.33
2022-10-03T12:14:29.092Z,4.07
2022-10-03T12:17:12.521Z,3.40
2022-10-03T12:19:45.089Z,4.60
2022-10-03T12:22:38.331Z,3.80
2022-10-03T12:25:26.231Z,3.33
2022-10-03T12:28:24.306Z,3.27
2022-10-03T12:31:27.120Z,3.10
2022-10-03T12:34:25.156Z,2.80
2022-10-03T12:37:13.842Z,2.63
2022-10-03T12:39:54.881Z,3.03
2022-10-03T12:42:40.862Z,2.70
2022-10-03T12:45:13.879Z,2.87
2022-10-03T12:47:56.698Z,3.10
2022-10-03T12:50:57.023Z,2.70
2022-10-03T12:53:53.487Z,2.53
2022-10-03T12:56:37.851Z,2.90
2022-10-03T12:59:14.786Z,2.70
2022-10-03T13:01:57.113Z,2.80
2022-10-03T13:04:47.699Z,2.63
2022-10-03T13:07:34.825Z,2.83
2022-10-03T13:10:31.213Z,2.70
2022-10-03T13:13:25.560Z,2.20
2022-10-03T13:16:39.970Z,2.00
2022-10-03T13:19:18.477Z,2.43
2022-10-03T13:22:08.285Z,2.57
2022-10-03T13:24:50.667Z,2.50
2022-10-03T13:27:36.580Z,2.50
2022-10-03T13:30:06.377Z,3.03
2022-10-03T13:32:37.223Z,2.70
2022-10-03T13:35:41.108Z,2.40
2022-10-03T13:38:31.819Z,2.30
2022-10-03T13:41:13.675Z,2.67
2022-10-03T13:43:48.795Z,2.63
2022-10-03T13:46:32.683Z,3.00
2022-10-03T13:49:12.016Z,2.47
2022-10-03T13:52:15.506Z,2.63
2022-10-03T13:55:01.273Z,2.70
2022-10-03T13:57:53.919Z,3.00
2022-10-03T14:00:25.008Z,2.37
2022-10-03T14:03:13.710Z,2.90
2022-10-03T14:05:46.534Z,2.93
2022-10-03T14:08:34.512Z,2.60
2022-10-03T14:11:27.017Z,2.87
2022-10-03T14:14:34.168Z,2.47
2022-10-03T14:17:08.226Z,2.83
2022-10-03T14:19:39.196Z,2.60
2022-10-03T14:22:24.556Z,3.77
2022-10-03T14:25:11.572Z,3.07
2022-10-03T14:27:52.957Z,3.00
2022-10-03T14:30:23.418Z,3.37
2022-10-03T14:33:10.932Z,3.10
2022-10-03T14:35:59.383Z,2.97
2022-10-03T14:38:57.915Z,3.00
2022-10-03T14:41:45.726Z,3.07
2022-10-03T14:44:51.130Z,2.83
2022-10-03T14:47:22.091Z,2.40
2022-10-03T14:49:59.202Z,2.67
2022-10-03T14:53:02.641Z,2.60
2022-10-03T14:55:53.693Z,2.80
2022-10-03T14:58:21.812Z,2.50
2022-10-03T15:01:25.242Z,2.47
2022-10-03T15:04:02.313Z,2.60
2022-10-03T15:06:39.574Z,2.40
2022-10-03T15:09:12.765Z,2.53
2022-10-03T15:12:09.626Z,2.40
2022-10-03T15:14:41.751Z,2.50
2022-10-03T15:17:44.688Z,2.47
2022-10-03T15:20:13.826Z,2.50
2022-10-03T15:22:47.009Z,2.30
2022-10-03T15:25:37.297Z,2.70
2022-10-03T15:28:24.649Z,2.53
2022-10-03T15:30:55.265Z,2.80
2022-10-03T15:33:22.384Z,2.70
2022-10-03T15:35:55.026Z,2.73
2022-10-03T15:38:27.193Z,2.97
2022-10-03T15:41:13.794Z,2.40
2022-10-03T15:43:53.213Z,2.90
2022-10-03T15:46:44.226Z,2.70
2022-10-03T15:49:26.461Z,2.40
2022-10-03T15:51:55.471Z,2.77
2022-10-03T15:54:26.228Z,2.77
2022-10-03T15:56:57.005Z,2.77
2022-10-03T15:59:33.529Z,2.70
2022-10-03T16:02:20.028Z,2.80
2022-10-03T16:04:48.338Z,2.80
2022-10-03T16:07:28.311Z,2.70
2022-10-03T16:10:10.809Z,2.37
2022-10-03T16:12:46.897Z,2.40
2022-10-03T16:15:27.565Z,2.40
2022-10-03T16:18:02.883Z,2.70
2022-10-03T16:20:45.679Z,2.20
2022-10-03T16:23:20.660Z,2.30
2022-10-03T16:25:56.564Z,2.07
2022-10-03T16:28:35.722Z,2.50
2022-10-03T16:31:13.462Z,2.40
2022-10-03T16:33:58.191Z,2.50
2022-10-03T16:36:25.734Z,2.60
2022-10-03T16:39:01.463Z,2.57
2022-10-03T16:41:31.717Z,2.50
2022-10-03T16:44:31.109Z,2.30
2022-10-03T16:47:03.017Z,2.57
2022-10-03T16:49:57.470Z,2.50
2022-10-03T16:52:35.484Z,2.17
2022-10-03T16:55:13.017Z,2.60
2022-10-03T16:58:18.341Z,2.40
2022-10-03T17:01:26.746Z,2.60
2022-10-03T17:04:42.708Z,2.47
2022-10-03T17:07:14.595Z,2.80
2022-10-03T17:09:50.207Z,2.80
2022-10-03T17:12:24.472Z,2.43
2022-10-03T17:14:54.801Z,2.70
2022-10-03T17:17:29.086Z,2.33
2022-10-03T17:20:11.285Z,2.50
2022-10-03T17:22:43.106Z,2.50
2022-10-03T17:25:18.953Z,2.30
2022-10-03T17:27:50.781Z,2.37
2022-10-03T17:30:48.947Z,2.33
2022-10-03T17:33:18.778Z,2.43
2022-10-03T17:36:13.241Z,2.30
2022-10-03T17:39:03.537Z,2.47
2022-10-03T17:41:50.211Z,2.70
2022-10-03T17:44:33.180Z,2.63
2022-10-03T17:47:18.174Z,2.87
2022-10-03T17:50:03.661Z,2.43
2022-10-03T17:52:31.678Z,2.80
2022-10-03T17:55:02.242Z,2.73
2022-10-03T17:57:39.603Z,2.83
2022-10-03T18:00:24.674Z,2.80
2022-10-03T18:03:14.788Z,2.80
2022-10-03T18:05:44.478Z,3.23
2022-10-03T18:08:21.768Z,3.13
2022-10-03T18:10:54.657Z,2.63
2022-10-03T18:13:42.514Z,3.40
2022-10-03T18:16:24.934Z,3.23
2022-10-03T18:19:21.583Z,2.90
2022-10-03T18:22:02.395Z,2.80
2022-10-03T18:24:53.009Z,2.13
2022-10-03T18:27:51.347Z,2.40
2022-10-03T18:30:23.967Z,2.73
2022-10-03T18:32:52.080Z,2.60
2022-10-03T18:35:34.142Z,2.53
2022-10-03T18:38:03.732Z,2.50
2022-10-03T18:40:47.511Z,2.50
2022-10-03T18:43:36.947Z,2.40
2022-10-03T18:46:16.837Z,2.40
2022-10-03T18:49:32.497Z,2.60
2022-10-03T18:52:19.541Z,2.83
2022-10-03T18:54:59.548Z,2.60
2022-10-03T18:57:46.578Z,2.70
2022-10-03T19:00:20.372Z,3.10
2022-10-03T19:03:01.265Z,3.03
2022-10-03T19:05:42.855Z,3.40
2022-10-03T19:08:27.769Z,3.20
2022-10-03T19:11:20.185Z,2.90
2022-10-03T19:14:08.911Z,2.80
2022-10-03T19:16:59.783Z,2.63
2022-10-03T19:19:41.642Z,3.20
2022-10-03T19:22:14.907Z,2.80
2022-10-03T19:24:58.453Z,2.57
2022-10-03T19:27:42.476Z,3.00
2022-10-03T19:30:11.871Z,2.80
2022-10-03T19:32:43.092Z,2.20
2022-10-03T19:35:14.102Z,2.40
2022-10-03T19:37:52.129Z,2.53
2022-10-03T19:40:44.769Z,2.47
